createdAt,value
2018-05-25T00:00:04.175Z,76.19
2018-05-25T00:03:07.491Z,76.20
2018-05-25T00:06:11.570Z,75.38
2018-05-25T00:09:14.897Z,75.02
2018-05-25T00:12:19.080Z,74.97
2018-05-25T00:15:22.475Z,75.38
2018-05-25T00:18:25.799Z,75.70
2018-05-25T00:21:29.167Z,75.95
2018-05-25T00:24:32.564Z,76.25
2018-05-25T00:27:35.898Z,76.37
2018-05-25T00:30:39.983Z,76.25
2018-05-25T00:33:44.081Z,75.96
2018-05-25T00:36:47.423Z,75.86
2018-05-25T00:39:50.726Z,76.06
2018-05-25T00:42:54.072Z,76.61
2018-05-25T00:45:57.485Z,77.66
2018-05-25T00:49:01.575Z,77.22
2018-05-25T00:52:04.945Z,77.34
2018-05-25T00:55:25.981Z,77.73
2018-05-25T00:58:29.310Z,77.79
2018-05-25T01:01:32.694Z,77.88
2018-05-25T01:04:36.033Z,77.85
2018-05-25T01:07:39.368Z,78.11
2018-05-25T01:10:42.677Z,78.06
2018-05-25T01:13:45.989Z,77.15
2018-05-25T01:16:49.296Z,77.15
2018-05-25T01:19:52.666Z,77.51
2018-05-25T01:22:56.053Z,78.13
2018-05-25T01:25:59.327Z,79.06
2018-05-25T01:29:02.645Z,79.69
2018-05-25T01:32:05.989Z,78.71
2018-05-25T01:35:10.047Z,78.30
2018-05-25T01:38:13.414Z,77.81
2018-05-25T01:41:16.717Z,77.81
2018-05-25T01:44:20.140Z,78.02
2018-05-25T01:47:23.552Z,77.90
2018-05-25T01:50:26.857Z,77.43
2018-05-25T01:53:30.973Z,77.15
2018-05-25T01:56:34.352Z,77.12
2018-05-25T01:59:37.740Z,77.13
2018-05-25T02:02:41.150Z,77.18
2018-05-25T02:05:44.536Z,77.13
2018-05-25T02:08:47.950Z,77.36
2018-05-25T02:11:51.261Z,77.79
2018-05-25T02:14:54.625Z,78.07
2018-05-25T02:17:58.025Z,78.28
2018-05-25T02:21:01.430Z,78.41
2018-05-25T02:24:04.719Z,77.96
2018-05-25T02:27:08.124Z,77.83
2018-05-25T02:30:11.525Z,76.87
2018-05-25T02:33:14.909Z,77.21
2018-05-25T02:36:18.185Z,77.25
2018-05-25T02:39:21.772Z,77.71
2018-05-25T02:42:25.096Z,77.93
2018-05-25T02:45:28.418Z,78.47
2018-05-25T02:48:32.521Z,78.49
2018-05-25T02:51:35.920Z,77.84
2018-05-25T02:54:39.319Z,77.23
2018-05-25T02:57:42.723Z,77.58
2018-05-25T03:00:46.029Z,77.91
2018-05-25T03:03:49.463Z,78.43
2018-05-25T03:06:52.776Z,78.84
2018-05-25T03:09:56.208Z,79.23
2018-05-25T03:12:59.596Z,78.38
2018-05-25T03:16:03.000Z,77.96
2018-05-25T03:19:06.389Z,78.09
2018-05-25T03:22:09.788Z,78.24
2018-05-25T03:25:13.180Z,78.02
2018-05-25T03:28:16.495Z,77.83
2018-05-25T03:31:19.800Z,77.70
2018-05-25T03:34:23.184Z,77.47
2018-05-25T03:37:26.574Z,76.55
2018-05-25T03:40:30.870Z,76.40
2018-05-25T03:43:34.292Z,75.56
2018-05-25T03:46:37.613Z,75.40
2018-05-25T03:49:40.991Z,74.71
2018-05-25T03:52:44.310Z,74.49
2018-05-25T03:55:48.403Z,74.84
2018-05-25T03:59:09.580Z,75.41
2018-05-25T04:02:12.927Z,75.60
2018-05-25T04:05:17.179Z,76.04
2018-05-25T04:08:20.527Z,76.04
2018-05-25T04:11:23.917Z,76.70
2018-05-25T04:14:27.405Z,77.05
2018-05-25T04:17:30.829Z,76.95
2018-05-25T04:20:34.205Z,76.37
2018-05-25T04:23:37.630Z,76.43
2018-05-25T04:26:42.585Z,76.51
2018-05-25T04:29:45.946Z,76.73
2018-05-25T04:32:49.256Z,77.15
2018-05-25T04:35:52.624Z,76.84
2018-05-25T04:38:55.953Z,76.38
2018-05-25T04:42:00.074Z,76.30
2018-05-25T04:45:04.156Z,76.89
2018-05-25T04:48:07.550Z,76.64
2018-05-25T04:51:10.883Z,76.16
2018-05-25T04:54:14.251Z,76.05
2018-05-25T04:57:17.528Z,76.39
2018-05-25T05:00:20.981Z,76.37
2018-05-25T05:03:25.102Z,76.02
2018-05-25T05:06:29.286Z,75.98
2018-05-25T05:09:32.613Z,75.51
2018-05-25T05:12:35.913Z,75.70
2018-05-25T05:15:39.235Z,75.37
2018-05-25T05:18:42.582Z,75.96
2018-05-25T05:21:45.978Z,75.43
2018-05-25T05:24:49.375Z,75.39
2018-05-25T05:27:52.804Z,74.91
2018-05-25T05:30:56.892Z,74.91
2018-05-25T05:34:00.183Z,73.73
2018-05-25T05:37:03.589Z,73.83
2018-05-25T05:40:06.919Z,73.97
2018-05-25T05:43:10.262Z,73.50
2018-05-25T05:46:13.592Z,73.54
2018-05-25T05:49:16.930Z,72.81
2018-05-25T05:52:21.106Z,72.74
2018-05-25T05:55:24.511Z,71.33
2018-05-25T05:58:27.843Z,70.95
2018-05-25T06:01:31.943Z,70.36
2018-05-25T06:04:35.258Z,70.65
2018-05-25T06:07:39.377Z,70.49
2018-05-25T06:10:43.420Z,70.22
2018-05-25T06:13:46.960Z,69.21
2018-05-25T06:16:50.347Z,69.08
2018-05-25T06:19:53.708Z,68.62
2018-05-25T06:22:57.014Z,68.41
2018-05-25T06:26:00.338Z,67.96
2018-05-25T06:29:03.665Z,67.23
2018-05-25T06:32:07.857Z,67.61
2018-05-25T06:35:11.142Z,67.23
2018-05-25T06:38:14.485Z,66.40
2018-05-25T06:41:17.877Z,66.06
2018-05-25T06:44:21.257Z,65.38
2018-05-25T06:47:24.671Z,65.07
2018-05-25T06:50:28.056Z,65.24
2018-05-25T06:53:31.469Z,64.85
2018-05-25T06:56:34.863Z,63.85
2018-05-25T06:59:38.165Z,62.91
2018-05-25T07:02:41.561Z,62.15
2018-05-25T07:05:44.883Z,61.93
2018-05-25T07:08:49.038Z,61.16
2018-05-25T07:11:52.370Z,61.05
2018-05-25T07:14:55.718Z,60.77
2018-05-25T07:17:59.813Z,60.93
2018-05-25T07:21:03.941Z,59.34
2018-05-25T07:24:08.021Z,59.62
2018-05-25T07:27:11.361Z,59.11
2018-05-25T07:30:15.538Z,57.64
2018-05-25T07:33:18.902Z,57.52
2018-05-25T07:36:22.352Z,57.43
2018-05-25T07:39:25.738Z,57.05
2018-05-25T07:42:29.133Z,57.74
2018-05-25T07:45:32.498Z,56.90
2018-05-25T07:48:35.793Z,56.76
2018-05-25T07:51:39.170Z,56.19
2018-05-25T07:54:43.338Z,56.56
2018-05-25T07:57:46.737Z,55.93
2018-05-25T08:00:50.070Z,56.12
2018-05-25T08:03:54.210Z,55.64
2018-05-25T08:06:57.538Z,56.29
2018-05-25T08:10:00.881Z,56.52
2018-05-25T08:13:04.971Z,55.59
2018-05-25T08:16:08.330Z,55.47
2018-05-25T08:19:11.637Z,55.14
2018-05-25T08:22:15.067Z,54.95
2018-05-25T08:25:18.460Z,54.47
2018-05-25T08:28:21.854Z,54.61
2018-05-25T08:31:25.192Z,54.84
2018-05-25T08:34:28.658Z,55.36
2018-05-25T08:37:31.969Z,55.08
2018-05-25T08:40:35.314Z,54.26
2018-05-25T08:43:38.664Z,54.33
2018-05-25T08:46:42.000Z,52.72
2018-05-25T08:49:46.646Z,51.53
2018-05-25T08:52:49.994Z,52.13
2018-05-25T08:55:54.071Z,50.07
2018-05-25T08:58:57.386Z,49.46
2018-05-25T09:02:01.537Z,48.96
2018-05-25T09:05:04.868Z,47.85
2018-05-25T09:08:08.174Z,46.95
2018-05-25T09:11:12.315Z,46.85
2018-05-25T09:14:15.692Z,45.66
2018-05-25T09:17:19.183Z,45.62
2018-05-25T09:20:22.481Z,45.20
2018-05-25T09:23:25.840Z,44.86
2018-05-25T09:26:29.155Z,44.04
2018-05-25T09:29:32.570Z,45.03
2018-05-25T09:32:35.969Z,44.57
2018-05-25T09:35:39.365Z,44.12
2018-05-25T09:38:42.776Z,45.39
2018-05-25T09:41:46.167Z,44.21
2018-05-25T09:44:49.567Z,43.03
2018-05-25T09:47:52.951Z,44.68
2018-05-25T09:50:56.372Z,44.39
2018-05-25T09:53:59.770Z,43.67
2018-05-25T09:57:03.106Z,45.25
2018-05-25T10:00:06.454Z,45.93
2018-05-25T10:03:09.926Z,44.84
2018-05-25T10:06:13.277Z,46.18
2018-05-25T10:09:17.386Z,46.74
2018-05-25T10:12:20.759Z,47.71
2018-05-25T10:15:24.080Z,47.92
2018-05-25T10:18:27.446Z,46.99
2018-05-25T10:21:30.756Z,48.33
2018-05-25T10:24:34.119Z,48.82
2018-05-25T10:27:37.547Z,48.24
2018-05-25T10:30:41.752Z,47.84
2018-05-25T10:33:45.074Z,48.05
2018-05-25T10:36:48.464Z,47.49
2018-05-25T10:39:51.763Z,47.00
2018-05-25T10:42:55.953Z,47.61
2018-05-25T10:45:59.270Z,48.46
2018-05-25T10:49:02.653Z,46.79
2018-05-25T10:52:05.981Z,46.66
2018-05-25T10:55:10.101Z,46.75
2018-05-25T10:58:14.150Z,46.55
2018-05-25T11:01:17.569Z,46.41
2018-05-25T11:04:20.898Z,46.51
2018-05-25T11:07:24.245Z,46.55
2018-05-25T11:10:27.533Z,46.47
2018-05-25T11:13:30.886Z,45.98
2018-05-25T11:16:34.969Z,45.22
2018-05-25T11:19:38.314Z,45.77
2018-05-25T11:22:42.401Z,45.74
2018-05-25T11:25:45.787Z,45.72
2018-05-25T11:28:49.110Z,45.78
2018-05-25T11:31:53.216Z,44.77
2018-05-25T11:34:57.286Z,45.46
2018-05-25T11:38:00.617Z,44.44
2018-05-25T11:41:05.445Z,45.16
2018-05-25T11:44:08.769Z,46.12
2018-05-25T11:47:12.146Z,47.22
2018-05-25T11:50:15.521Z,47.00
2018-05-25T11:53:18.816Z,46.89
2018-05-25T11:56:22.170Z,47.23
2018-05-25T11:59:25.517Z,47.65
2018-05-25T12:02:28.905Z,47.58
2018-05-25T12:05:32.296Z,47.54
2018-05-25T12:08:35.688Z,47.96
2018-05-25T12:11:39.000Z,46.57
2018-05-25T12:14:42.348Z,45.67
2018-05-25T12:17:45.688Z,45.09
2018-05-25T12:20:49.040Z,45.01
2018-05-25T12:23:52.377Z,43.92
2018-05-25T12:26:55.767Z,42.56
2018-05-25T12:29:59.172Z,42.65
2018-05-25T12:33:02.523Z,42.27
2018-05-25T12:36:05.830Z,42.24
2018-05-25T12:39:09.273Z,43.14
2018-05-25T12:42:12.675Z,43.24
2018-05-25T12:45:16.068Z,42.67
2018-05-25T12:48:19.472Z,42.39
2018-05-25T12:51:22.810Z,42.62
2018-05-25T12:54:26.158Z,42.14
2018-05-25T12:57:29.490Z,42.00
2018-05-25T13:00:33.569Z,41.59
2018-05-25T13:03:36.902Z,40.89
2018-05-25T13:06:41.000Z,41.52
2018-05-25T13:09:44.365Z,41.54
2018-05-25T13:12:47.761Z,41.27
2018-05-25T13:15:51.119Z,40.66
2018-05-25T13:18:54.484Z,40.38
2018-05-25T13:21:57.853Z,39.67
2018-05-25T13:25:01.252Z,39.86
2018-05-25T13:28:04.600Z,40.00
2018-05-25T13:31:07.953Z,39.55
2018-05-25T13:34:11.300Z,40.48
2018-05-25T13:37:14.612Z,40.25
2018-05-25T13:40:17.987Z,40.07
2018-05-25T13:43:21.337Z,40.21
2018-05-25T13:46:24.737Z,40.21
2018-05-25T13:49:28.134Z,40.22
2018-05-25T13:52:31.522Z,40.48
2018-05-25T13:55:34.813Z,40.67
2018-05-25T13:58:38.226Z,40.70
2018-05-25T14:01:41.588Z,39.87
2018-05-25T14:04:45.009Z,40.08
2018-05-25T14:07:48.436Z,40.45
2018-05-25T14:10:51.812Z,39.86
2018-05-25T14:13:55.131Z,40.04
2018-05-25T14:16:58.447Z,40.52
2018-05-25T14:20:01.910Z,39.49
2018-05-25T14:23:05.254Z,39.65
2018-05-25T14:26:08.565Z,38.83
2018-05-25T14:29:11.992Z,38.72
2018-05-25T14:32:15.328Z,37.49
2018-05-25T14:35:19.506Z,37.13
2018-05-25T14:38:25.381Z,37.58
2018-05-25T14:41:28.748Z,36.82
2018-05-25T14:44:32.154Z,36.30
2018-05-25T14:47:35.521Z,37.56
2018-05-25T14:50:38.838Z,37.13
2018-05-25T14:53:42.256Z,36.64
2018-05-25T14:56:45.684Z,37.68
2018-05-25T14:59:49.833Z,37.62
2018-05-25T15:02:53.136Z,37.88
2018-05-25T15:05:56.439Z,37.67
2018-05-25T15:08:59.853Z,37.89
2018-05-25T15:12:03.225Z,37.71
2018-05-25T15:15:06.540Z,37.05
2018-05-25T15:18:09.884Z,36.15
2018-05-25T15:21:14.004Z,36.43
2018-05-25T15:24:17.357Z,36.27
2018-05-25T15:27:20.751Z,36.17
2018-05-25T15:30:24.101Z,35.49
2018-05-25T15:33:27.432Z,36.69
2018-05-25T15:36:30.784Z,36.77
2018-05-25T15:39:34.115Z,35.97
2018-05-25T15:42:37.533Z,33.72
2018-05-25T15:45:40.930Z,33.61
2018-05-25T15:48:44.282Z,32.85
2018-05-25T15:51:47.604Z,32.36
2018-05-25T15:54:51.028Z,31.18
2018-05-25T15:57:54.419Z,32.09
2018-05-25T16:00:57.768Z,33.82
2018-05-25T16:04:01.132Z,34.09
2018-05-25T16:07:04.479Z,33.41
2018-05-25T16:10:07.825Z,33.70
2018-05-25T16:13:11.219Z,34.46
2018-05-25T16:16:14.613Z,33.11
2018-05-25T16:19:18.106Z,34.14
2018-05-25T16:22:21.451Z,35.17
2018-05-25T16:25:24.792Z,35.48
2018-05-25T16:28:28.201Z,34.73
2018-05-25T16:31:31.548Z,34.77
2018-05-25T16:34:34.864Z,33.59
2018-05-25T16:37:38.317Z,32.64
2018-05-25T16:40:42.498Z,32.51
2018-05-25T16:43:45.897Z,33.26
2018-05-25T16:46:49.209Z,33.62
2018-05-25T16:49:52.580Z,33.24
2018-05-25T16:52:55.915Z,32.87
2018-05-25T16:55:59.355Z,33.03
2018-05-25T16:59:02.651Z,33.64
2018-05-25T17:02:05.988Z,34.82
2018-05-25T17:05:09.396Z,35.47
2018-05-25T17:08:12.715Z,36.05
2018-05-25T17:11:16.059Z,36.22
2018-05-25T17:14:19.491Z,35.17
2018-05-25T17:17:22.875Z,35.59
2018-05-25T17:20:26.228Z,35.65
2018-05-25T17:23:29.554Z,36.68
2018-05-25T17:26:32.942Z,37.83
2018-05-25T17:29:36.240Z,38.63
2018-05-25T17:32:39.554Z,39.59
2018-05-25T17:35:43.659Z,40.15
2018-05-25T17:38:47.006Z,40.54
2018-05-25T17:41:50.344Z,40.82
2018-05-25T17:44:53.762Z,41.55
2018-05-25T17:47:57.099Z,42.13
2018-05-25T17:51:00.461Z,43.07
2018-05-25T17:54:03.799Z,43.80
2018-05-25T17:57:07.202Z,44.35
2018-05-25T18:00:10.634Z,45.19
2018-05-25T18:03:14.114Z,46.32
2018-05-25T18:06:17.374Z,45.78
2018-05-25T18:09:20.780Z,46.54
2018-05-25T18:12:24.132Z,46.22
2018-05-25T18:15:27.506Z,46.12
2018-05-25T18:18:30.919Z,46.07
2018-05-25T18:21:34.284Z,46.33
2018-05-25T18:24:37.710Z,46.64
2018-05-25T18:27:41.127Z,47.74
2018-05-25T18:30:44.503Z,49.63
2018-05-25T18:33:47.892Z,52.23
2018-05-25T18:36:51.233Z,53.08
2018-05-25T18:39:55.342Z,53.92
2018-05-25T18:42:59.549Z,55.28
2018-05-25T18:46:03.050Z,56.23
2018-05-25T18:49:06.430Z,56.89
2018-05-25T18:52:09.913Z,57.49
2018-05-25T18:55:13.342Z,58.04
2018-05-25T18:58:16.679Z,58.64
2018-05-25T19:01:20.089Z,58.97
2018-05-25T19:04:23.517Z,59.20
2018-05-25T19:07:27.011Z,59.59
2018-05-25T19:10:30.525Z,60.21
2018-05-25T19:13:33.850Z,60.79
2018-05-25T19:16:38.068Z,61.61
2018-05-25T19:19:43.058Z,62.42
2018-05-25T19:22:46.396Z,63.10
2018-05-25T19:25:50.480Z,63.68
2018-05-25T19:28:53.846Z,64.29
2018-05-25T19:31:57.293Z,64.28
2018-05-25T19:35:00.675Z,63.92
2018-05-25T19:38:04.002Z,63.46
2018-05-25T19:41:08.118Z,62.98
2018-05-25T19:44:12.206Z,63.06
2018-05-25T19:47:15.609Z,62.85
2018-05-25T19:50:18.935Z,62.58
2018-05-25T19:53:22.285Z,62.87
2018-05-25T19:56:27.257Z,63.78
2018-05-25T19:59:31.386Z,64.74
2018-05-25T20:02:34.693Z,65.06
2018-05-25T20:05:38.810Z,65.18
2018-05-25T20:08:42.134Z,64.95
2018-05-25T20:11:45.490Z,65.12
2018-05-25T20:14:48.790Z,64.91
2018-05-25T20:17:52.157Z,64.25
2018-05-25T20:20:56.239Z,63.90
2018-05-25T20:23:59.649Z,63.96
2018-05-25T20:27:02.965Z,63.12
2018-05-25T20:30:07.070Z,61.60
2018-05-25T20:33:11.197Z,60.03
2018-05-25T20:36:15.379Z,58.07
2018-05-25T20:39:18.769Z,56.63
2018-05-25T20:42:22.176Z,55.17
2018-05-25T20:45:25.522Z,53.50
2018-05-25T20:48:28.862Z,52.15
2018-05-25T20:51:32.183Z,50.89
2018-05-25T20:54:36.298Z,49.36
2018-05-25T20:57:40.494Z,49.20
2018-05-25T21:00:43.894Z,48.35
2018-05-25T21:03:47.288Z,48.33
2018-05-25T21:06:50.690Z,47.83
2018-05-25T21:09:54.023Z,47.67
2018-05-25T21:12:58.192Z,47.49
2018-05-25T21:16:01.510Z,47.17
2018-05-25T21:19:04.854Z,46.86
2018-05-25T21:22:08.164Z,46.51
2018-05-25T21:25:11.518Z,46.26
2018-05-25T21:28:15.611Z,46.02
2018-05-25T21:31:18.967Z,46.01
2018-05-25T21:34:22.389Z,46.20
2018-05-25T21:37:25.753Z,46.70
2018-05-25T21:40:29.268Z,47.13
2018-05-25T21:43:32.690Z,47.56
2018-05-25T21:46:36.012Z,48.11
2018-05-25T21:49:40.129Z,48.74
2018-05-25T21:52:44.326Z,49.38
2018-05-25T21:55:49.173Z,50.06
2018-05-25T21:58:53.322Z,50.60
2018-05-25T22:01:56.673Z,51.43
2018-05-25T22:05:00.761Z,52.42
2018-05-25T22:08:04.157Z,53.31
2018-05-25T22:11:07.596Z,53.84
2018-05-25T22:14:11.744Z,54.51
2018-05-25T22:17:15.083Z,55.49
2018-05-25T22:20:18.548Z,56.36
2018-05-25T22:23:22.113Z,57.19
2018-05-25T22:26:26.233Z,57.62
2018-05-25T22:29:30.308Z,58.13
2018-05-25T22:32:33.769Z,59.07
2018-05-25T22:35:37.150Z,59.60
2018-05-25T22:38:40.517Z,60.18
2018-05-25T22:41:43.851Z,60.83
2018-05-25T22:45:05.223Z,61.65
2018-05-25T22:48:26.386Z,62.52
2018-05-25T22:51:47.588Z,63.21
2018-05-25T22:54:59.326Z,63.95
2018-05-25T22:58:02.652Z,64.91
2018-05-25T23:01:08.451Z,65.90
2018-05-25T23:04:11.792Z,66.38
2018-05-25T23:07:15.176Z,67.17
2018-05-25T23:10:18.488Z,67.98
2018-05-25T23:13:21.778Z,68.55
2018-05-25T23:16:25.974Z,69.01
2018-05-25T23:19:29.370Z,69.16
2018-05-25T23:22:32.778Z,69.05
2018-05-25T23:25:36.164Z,69.50
2018-05-25T23:28:39.514Z,69.84
2018-05-25T23:31:43.676Z,70.20
2018-05-25T23:34:46.976Z,70.86
2018-05-25T23:37:50.312Z,70.96
2018-05-25T23:40:54.363Z,71.36
2018-05-25T23:43:57.725Z,72.14
2018-05-25T23:47:01.810Z,72.31
2018-05-25T23:50:05.153Z,72.86
2018-05-25T23:53:08.451Z,73.31
2018-05-25T23:56:11.811Z,73.92
2018-05-25T23:59:15.193Z,74.22
